sensor_id;sensor_type;location;lat;lon;timestamp;P1;durP1;ratioP1;P2;durP2;ratioP2
29214;SDS011;16252;49.816;7.964;2023-05-10T00:02:09;0.30;;;0.30;;
29214;SDS011;16252;49.816;7.964;2023-05-10T00:04:34;0.28;;;0.28;;
29214;SDS011;16252;49.816;7.964;2023-05-10T00:06:59;1.60;;;0.60;;
29214;SDS011;16252;49.816;7.964;2023-05-10T00:09:24;1.08;;;0.40;;
29214;SDS011;16252;49.816;7.964;2023-05-10T00:11:50;0.50;;;0.38;;
29214;SDS011;16252;49.816;7.964;2023-05-10T00:14:15;0.20;;;0.20;;
29214;SDS011;16252;49.816;7.964;2023-05-10T00:16:41;0.30;;;0.30;;
29214;SDS011;16252;49.816;7.964;2023-05-10T00:19:06;0.57;;;0.45;;
29214;SDS011;16252;49.816;7.964;2023-05-10T00:21:31;0.95;;;0.60;;
29214;SDS011;16252;49.816;7.964;2023-05-10T00:23:58;0.93;;;0.40;;
29214;SDS011;16252;49.816;7.964;2023-05-10T00:26:23;0.40;;;0.40;;
29214;SDS011;16252;49.816;7.964;2023-05-10T00:28:49;0.38;;;0.38;;
29214;SDS011;16252;49.816;7.964;2023-05-10T00:31:14;0.57;;;0.40;;
29214;SDS011;16252;49.816;7.964;2023-05-10T00:33:39;0.30;;;0.30;;
29214;SDS011;16252;49.816;7.964;2023-05-10T00:36:05;2.05;;;0.50;;
29214;SDS011;16252;49.816;7.964;2023-05-10T00:38:32;0.50;;;0.40;;
29214;SDS011;16252;49.816;7.964;2023-05-10T00:40:58;0.50;;;0.50;;
29214;SDS011;16252;49.816;7.964;2023-05-10T00:43:23;0.40;;;0.40;;
29214;SDS011;16252;49.816;7.964;2023-05-10T00:45:48;0.68;;;0.50;;
29214;SDS011;16252;49.816;7.964;2023-05-10T00:48:14;0.50;;;0.50;;
29214;SDS011;16252;49.816;7.964;2023-05-10T00:50:39;1.23;;;0.50;;
29214;SDS011;16252;49.816;7.964;2023-05-10T00:53:05;0.80;;;0.50;;
29214;SDS011;16252;49.816;7.964;2023-05-10T00:55:31;0.40;;;0.40;;
29214;SDS011;16252;49.816;7.964;2023-05-10T00:57:56;0.40;;;0.40;;
29214;SDS011;16252;49.816;7.964;2023-05-10T01:00:21;1.27;;;0.52;;
29214;SDS011;16252;49.816;7.964;2023-05-10T01:02:47;0.35;;;0.35;;
29214;SDS011;16252;49.816;7.964;2023-05-10T01:05:12;0.43;;;0.40;;
29214;SDS011;16252;49.816;7.964;2023-05-10T01:07:38;0.45;;;0.32;;
29214;SDS011;16252;49.816;7.964;2023-05-10T01:10:04;0.32;;;0.32;;
29214;SDS011;16252;49.816;7.964;2023-05-10T01:12:31;0.57;;;0.40;;
29214;SDS011;16252;49.816;7.964;2023-05-10T01:14:57;0.60;;;0.40;;
29214;SDS011;16252;49.816;7.964;2023-05-10T01:17:22;0.52;;;0.50;;
29214;SDS011;16252;49.816;7.964;2023-05-10T01:19:49;0.73;;;0.40;;
29214;SDS011;16252;49.816;7.964;2023-05-10T01:22:39;0.50;;;0.40;;
29214;SDS011;16252;49.816;7.964;2023-05-10T01:33:19;0.40;;;0.40;;
29214;SDS011;16252;49.816;7.964;2023-05-10T01:35:55;0.30;;;0.30;;
29214;SDS011;16252;49.816;7.964;2023-05-10T01:38:29;2.72;;;0.75;;
29214;SDS011;16252;49.816;7.964;2023-05-10T01:43:37;0.57;;;0.40;;
29214;SDS011;16252;49.816;7.964;2023-05-10T01:46:20;1.10;;;0.50;;
29214;SDS011;16252;49.816;7.964;2023-05-10T01:48:52;0.35;;;0.35;;
29214;SDS011;16252;49.816;7.964;2023-05-10T01:51:21;0.40;;;0.40;;
29214;SDS011;16252;49.816;7.964;2023-05-10T01:53:50;0.55;;;0.55;;
29214;SDS011;16252;49.816;7.964;2023-05-10T01:56:19;0.65;;;0.50;;
29214;SDS011;16252;49.816;7.964;2023-05-10T01:58:49;1.95;;;0.40;;
29214;SDS011;16252;49.816;7.964;2023-05-10T02:01:16;0.30;;;0.30;;
29214;SDS011;16252;49.816;7.964;2023-05-10T02:03:45;0.35;;;0.35;;
29214;SDS011;16252;49.816;7.964;2023-05-10T02:06:12;0.40;;;0.40;;
29214;SDS011;16252;49.816;7.964;2023-05-10T02:08:41;0.35;;;0.35;;
29214;SDS011;16252;49.816;7.964;2023-05-10T02:11:07;1.95;;;0.40;;
29214;SDS011;16252;49.816;7.964;2023-05-10T02:13:37;0.50;;;0.40;;
29214;SDS011;16252;49.816;7.964;2023-05-10T02:16:04;0.40;;;0.40;;
29214;SDS011;16252;49.816;7.964;2023-05-10T02:18:31;3.13;;;0.50;;
29214;SDS011;16252;49.816;7.964;2023-05-10T02:20:58;0.40;;;0.40;;
29214;SDS011;16252;49.816;7.964;2023-05-10T02:23:25;0.40;;;0.40;;
29214;SDS011;16252;49.816;7.964;2023-05-10T02:25:51;0.30;;;0.30;;
29214;SDS011;16252;49.816;7.964;2023-05-10T02:28:18;0.77;;;0.50;;
29214;SDS011;16252;49.816;7.964;2023-05-10T02:30:45;0.30;;;0.30;;
29214;SDS011;16252;49.816;7.964;2023-05-10T02:33:12;0.80;;;0.63;;
29214;SDS011;16252;49.816;7.964;2023-05-10T02:35:39;0.60;;;0.60;;
29214;SDS011;16252;49.816;7.964;2023-05-10T02:38:04;0.95;;;0.60;;
29214;SDS011;16252;49.816;7.964;2023-05-10T02:40:31;0.50;;;0.50;;
29214;SDS011;16252;49.816;7.964;2023-05-10T02:42:58;0.68;;;0.68;;
29214;SDS011;16252;49.816;7.964;2023-05-10T02:45:25;0.50;;;0.50;;
29214;SDS011;16252;49.816;7.964;2023-05-10T02:47:55;1.75;;;0.50;;
29214;SDS011;16252;49.816;7.964;2023-05-10T02:50:21;0.60;;;0.60;;
29214;SDS011;16252;49.816;7.964;2023-05-10T02:52:49;0.70;;;0.70;;
29214;SDS011;16252;49.816;7.964;2023-05-10T02:55:20;0.50;;;0.50;;
29214;SDS011;16252;49.816;7.964;2023-05-10T02:58:00;0.70;;;0.70;;
29214;SDS011;16252;49.816;7.964;2023-05-10T03:00:26;0.85;;;0.75;;
29214;SDS011;16252;49.816;7.964;2023-05-10T03:02:52;0.50;;;0.50;;
29214;SDS011;16252;49.816;7.964;2023-05-10T03:05:18;0.73;;;0.70;;
29214;SDS011;16252;49.816;7.964;2023-05-10T03:07:44;1.17;;;0.80;;
29214;SDS011;16252;49.816;7.964;2023-05-10T03:10:10;0.55;;;0.55;;
29214;SDS011;16252;49.816;7.964;2023-05-10T03:15:26;0.75;;;0.60;;
29214;SDS011;16252;49.816;7.964;2023-05-10T03:18:23;0.70;;;0.70;;
29214;SDS011;16252;49.816;7.964;2023-05-10T03:21:02;0.93;;;0.70;;
29214;SDS011;16252;49.816;7.964;2023-05-10T03:23:34;2.25;;;0.70;;
29214;SDS011;16252;49.816;7.964;2023-05-10T03:26:04;1.40;;;0.68;;
29214;SDS011;16252;49.816;7.964;2023-05-10T03:28:30;0.93;;;0.82;;
29214;SDS011;16252;49.816;7.964;2023-05-10T03:30:58;1.42;;;0.80;;
29214;SDS011;16252;49.816;7.964;2023-05-10T03:33:24;1.33;;;0.85;;
29214;SDS011;16252;49.816;7.964;2023-05-10T03:35:50;1.75;;;0.80;;
29214;SDS011;16252;49.816;7.964;2023-05-10T03:38:15;0.93;;;0.90;;
29214;SDS011;16252;49.816;7.964;2023-05-10T03:40:40;0.85;;;0.75;;
29214;SDS011;16252;49.816;7.964;2023-05-10T03:43:06;0.85;;;0.82;;
29214;SDS011;16252;49.816;7.964;2023-05-10T03:45:31;0.80;;;0.80;;
29214;SDS011;16252;49.816;7.964;2023-05-10T03:47:57;2.08;;;1.20;;
29214;SDS011;16252;49.816;7.964;2023-05-10T03:50:23;1.23;;;1.08;;
29214;SDS011;16252;49.816;7.964;2023-05-10T03:52:48;1.65;;;0.90;;
29214;SDS011;16252;49.816;7.964;2023-05-10T03:55:13;1.42;;;0.90;;
29214;SDS011;16252;49.816;7.964;2023-05-10T03:57:39;1.77;;;1.10;;
29214;SDS011;16252;49.816;7.964;2023-05-10T04:00:04;2.22;;;1.20;;
29214;SDS011;16252;49.816;7.964;2023-05-10T04:02:30;1.20;;;1.10;;
29214;SDS011;16252;49.816;7.964;2023-05-10T04:04:55;1.00;;;0.90;;
29214;SDS011;16252;49.816;7.964;2023-05-10T04:07:21;1.42;;;1.08;;
29214;SDS011;16252;49.816;7.964;2023-05-10T04:09:46;2.25;;;1.00;;
29214;SDS011;16252;49.816;7.964;2023-05-10T04:12:12;1.90;;;1.15;;
29214;SDS011;16252;49.816;7.964;2023-05-10T04:14:37;1.42;;;1.02;;
29214;SDS011;16252;49.816;7.964;2023-05-10T04:17:02;1.42;;;1.17;;
29214;SDS011;16252;49.816;7.964;2023-05-10T04:19:31;1.20;;;1.10;;
29214;SDS011;16252;49.816;7.964;2023-05-10T04:21:56;1.75;;;1.42;;
29214;SDS011;16252;49.816;7.964;2023-05-10T04:24:23;2.53;;;1.30;;
29214;SDS011;16252;49.816;7.964;2023-05-10T04:26:48;2.60;;;1.30;;
29214;SDS011;16252;49.816;7.964;2023-05-10T04:29:14;1.63;;;1.20;;
29214;SDS011;16252;49.816;7.964;2023-05-10T04:31:39;1.45;;;1.35;;
29214;SDS011;16252;49.816;7.964;2023-05-10T04:34:04;1.50;;;1.17;;
29214;SDS011;16252;49.816;7.964;2023-05-10T04:36:30;1.20;;;1.10;;
29214;SDS011;16252;49.816;7.964;2023-05-10T04:38:57;2.08;;;1.27;;
29214;SDS011;16252;49.816;7.964;2023-05-10T04:41:22;2.17;;;1.17;;
29214;SDS011;16252;49.816;7.964;2023-05-10T04:43:47;1.30;;;1.20;;
29214;SDS011;16252;49.816;7.964;2023-05-10T04:46:14;1.38;;;1.27;;
29214;SDS011;16252;49.816;7.964;2023-05-10T04:48:39;1.85;;;1.00;;
29214;SDS011;16252;49.816;7.964;2023-05-10T04:51:04;0.98;;;0.98;;
29214;SDS011;16252;49.816;7.964;2023-05-10T04:53:31;4.30;;;1.27;;
29214;SDS011;16252;49.816;7.964;2023-05-10T04:55:57;1.88;;;1.25;;
29214;SDS011;16252;49.816;7.964;2023-05-10T04:58:22;1.42;;;1.20;;
29214;SDS011;16252;49.816;7.964;2023-05-10T05:00:47;1.60;;;1.50;;
29214;SDS011;16252;49.816;7.964;2023-05-10T05:03:12;1.92;;;1.45;;
29214;SDS011;16252;49.816;7.964;2023-05-10T05:05:38;2.60;;;1.40;;
29214;SDS011;16252;49.816;7.964;2023-05-10T05:08:03;1.90;;;1.75;;
29214;SDS011;16252;49.816;7.964;2023-05-10T05:10:28;2.45;;;1.70;;
29214;SDS011;16252;49.816;7.964;2023-05-10T05:12:54;2.17;;;1.58;;
29214;SDS011;16252;49.816;7.964;2023-05-10T05:15:20;2.17;;;1.60;;
29214;SDS011;16252;49.816;7.964;2023-05-10T05:17:45;3.20;;;1.40;;
29214;SDS011;16252;49.816;7.964;2023-05-10T05:20:10;2.95;;;1.50;;
29214;SDS011;16252;49.816;7.964;2023-05-10T05:22:36;1.48;;;1.25;;
29214;SDS011;16252;49.816;7.964;2023-05-10T05:25:02;2.15;;;1.63;;
29214;SDS011;16252;49.816;7.964;2023-05-10T05:27:28;1.73;;;1.52;;
29214;SDS011;16252;49.816;7.964;2023-05-10T05:29:54;1.70;;;1.50;;
29214;SDS011;16252;49.816;7.964;2023-05-10T05:32:20;3.70;;;1.58;;
29214;SDS011;16252;49.816;7.964;2023-05-10T05:34:45;3.75;;;1.33;;
29214;SDS011;16252;49.816;7.964;2023-05-10T05:37:18;1.58;;;1.48;;
29214;SDS011;16252;49.816;7.964;2023-05-10T05:39:44;1.95;;;1.52;;
29214;SDS011;16252;49.816;7.964;2023-05-10T05:42:10;2.53;;;1.40;;
29214;SDS011;16252;49.816;7.964;2023-05-10T05:44:36;3.88;;;1.60;;
29214;SDS011;16252;49.816;7.964;2023-05-10T05:47:02;3.20;;;1.35;;
29214;SDS011;16252;49.816;7.964;2023-05-10T05:49:27;3.38;;;1.60;;
29214;SDS011;16252;49.816;7.964;2023-05-10T05:51:53;3.42;;;1.70;;
29214;SDS011;16252;49.816;7.964;2023-05-10T05:54:18;2.13;;;1.45;;
29214;SDS011;16252;49.816;7.964;2023-05-10T05:56:43;3.97;;;1.40;;
29214;SDS011;16252;49.816;7.964;2023-05-10T05:59:09;4.18;;;1.67;;
29214;SDS011;16252;49.816;7.964;2023-05-10T06:01:35;2.17;;;1.55;;
29214;SDS011;16252;49.816;7.964;2023-05-10T06:04:00;2.55;;;1.73;;
29214;SDS011;16252;49.816;7.964;2023-05-10T06:06:25;2.33;;;1.85;;
29214;SDS011;16252;49.816;7.964;2023-05-10T06:08:51;1.95;;;1.52;;
29214;SDS011;16252;49.816;7.964;2023-05-10T06:11:17;2.08;;;1.70;;
29214;SDS011;16252;49.816;7.964;2023-05-10T06:13:42;4.45;;;1.58;;
29214;SDS011;16252;49.816;7.964;2023-05-10T06:16:07;1.60;;;1.50;;
29214;SDS011;16252;49.816;7.964;2023-05-10T06:18:33;1.88;;;1.60;;
29214;SDS011;16252;49.816;7.964;2023-05-10T06:20:58;1.85;;;1.42;;
29214;SDS011;16252;49.816;7.964;2023-05-10T06:23:23;3.33;;;1.80;;
29214;SDS011;16252;49.816;7.964;2023-05-10T06:25:50;1.38;;;1.25;;
29214;SDS011;16252;49.816;7.964;2023-05-10T06:28:16;1.50;;;1.30;;
29214;SDS011;16252;49.816;7.964;2023-05-10T06:30:41;1.52;;;1.42;;
29214;SDS011;16252;49.816;7.964;2023-05-10T06:33:06;2.83;;;1.42;;
29214;SDS011;16252;49.816;7.964;2023-05-10T06:35:32;5.80;;;1.50;;
29214;SDS011;16252;49.816;7.964;2023-05-10T06:37:58;1.60;;;1.50;;
29214;SDS011;16252;49.816;7.964;2023-05-10T06:40:23;1.70;;;1.30;;
29214;SDS011;16252;49.816;7.964;2023-05-10T06:42:49;1.77;;;1.60;;
29214;SDS011;16252;49.816;7.964;2023-05-10T06:45:14;2.53;;;1.30;;
29214;SDS011;16252;49.816;7.964;2023-05-10T06:47:40;1.50;;;1.40;;
29214;SDS011;16252;49.816;7.964;2023-05-10T06:50:07;1.60;;;1.27;;
29214;SDS011;16252;49.816;7.964;2023-05-10T06:52:33;2.20;;;1.60;;
29214;SDS011;16252;49.816;7.964;2023-05-10T06:54:59;6.15;;;1.40;;
29214;SDS011;16252;49.816;7.964;2023-05-10T06:57:25;1.85;;;1.30;;
29214;SDS011;16252;49.816;7.964;2023-05-10T06:59:50;3.28;;;1.10;;
29214;SDS011;16252;49.816;7.964;2023-05-10T07:02:16;1.83;;;1.52;;
29214;SDS011;16252;49.816;7.964;2023-05-10T07:04:42;1.30;;;1.20;;
29214;SDS011;16252;49.816;7.964;2023-05-10T07:07:07;1.42;;;1.00;;
29214;SDS011;16252;49.816;7.964;2023-05-10T07:09:33;1.60;;;1.00;;
29214;SDS011;16252;49.816;7.964;2023-05-10T07:11:58;1.27;;;1.05;;
29214;SDS011;16252;49.816;7.964;2023-05-10T07:14:23;1.27;;;1.17;;
29214;SDS011;16252;49.816;7.964;2023-05-10T07:16:49;1.20;;;1.10;;
29214;SDS011;16252;49.816;7.964;2023-05-10T07:19:14;1.55;;;0.80;;
29214;SDS011;16252;49.816;7.964;2023-05-10T07:21:39;3.00;;;0.70;;
29214;SDS011;16252;49.816;7.964;2023-05-10T07:24:07;1.38;;;0.90;;
29214;SDS011;16252;49.816;7.964;2023-05-10T07:26:32;0.80;;;0.80;;
29214;SDS011;16252;49.816;7.964;2023-05-10T07:28:58;2.72;;;1.10;;
29214;SDS011;16252;49.816;7.964;2023-05-10T07:31:23;0.98;;;0.85;;
29214;SDS011;16252;49.816;7.964;2023-05-10T07:33:48;1.15;;;0.90;;
29214;SDS011;16252;49.816;7.964;2023-05-10T07:36:13;1.13;;;0.90;;
29214;SDS011;16252;49.816;7.964;2023-05-10T07:38:39;1.75;;;1.30;;
29214;SDS011;16252;49.816;7.964;2023-05-10T07:41:05;1.30;;;1.20;;
29214;SDS011;16252;49.816;7.964;2023-05-10T07:43:30;1.05;;;0.98;;
29214;SDS011;16252;49.816;7.964;2023-05-10T07:45:55;1.00;;;0.90;;
29214;SDS011;16252;49.816;7.964;2023-05-10T07:48:22;0.70;;;0.60;;
29214;SDS011;16252;49.816;7.964;2023-05-10T07:50:47;1.95;;;0.80;;
29214;SDS011;16252;49.816;7.964;2023-05-10T07:53:13;1.10;;;1.00;;
29214;SDS011;16252;49.816;7.964;2023-05-10T07:55:38;0.70;;;0.70;;
29214;SDS011;16252;49.816;7.964;2023-05-10T07:58:03;6.70;;;2.05;;
29214;SDS011;16252;49.816;7.964;2023-05-10T08:00:28;1.80;;;0.68;;
29214;SDS011;16252;49.816;7.964;2023-05-10T08:02:54;1.35;;;0.90;;
29214;SDS011;16252;49.816;7.964;2023-05-10T08:05:19;1.48;;;0.93;;
29214;SDS011;16252;49.816;7.964;2023-05-10T08:07:44;1.00;;;0.90;;
29214;SDS011;16252;49.816;7.964;2023-05-10T08:10:10;1.08;;;0.80;;
29214;SDS011;16252;49.816;7.964;2023-05-10T08:12:38;1.00;;;0.80;;
29214;SDS011;16252;49.816;7.964;2023-05-10T08:15:04;0.85;;;0.60;;
29214;SDS011;16252;49.816;7.964;2023-05-10T08:17:29;1.02;;;0.50;;
29214;SDS011;16252;49.816;7.964;2023-05-10T08:19:55;0.65;;;0.60;;
29214;SDS011;16252;49.816;7.964;2023-05-10T08:22:20;0.90;;;0.50;;
29214;SDS011;16252;49.816;7.964;2023-05-10T08:24:46;0.57;;;0.55;;
29214;SDS011;16252;49.816;7.964;2023-05-10T08:27:11;0.50;;;0.50;;
29214;SDS011;16252;49.816;7.964;2023-05-10T08:29:37;2.72;;;0.40;;
29214;SDS011;16252;49.816;7.964;2023-05-10T08:32:02;0.65;;;0.45;;
29214;SDS011;16252;49.816;7.964;2023-05-10T08:34:28;0.85;;;0.50;;
29214;SDS011;16252;49.816;7.964;2023-05-10T08:36:53;3.20;;;0.98;;
29214;SDS011;16252;49.816;7.964;2023-05-10T08:39:18;0.57;;;0.57;;
29214;SDS011;16252;49.816;7.964;2023-05-10T08:41:44;2.80;;;0.73;;
29214;SDS011;16252;49.816;7.964;2023-05-10T08:44:10;2.05;;;0.63;;
29214;SDS011;16252;49.816;7.964;2023-05-10T08:46:36;0.60;;;0.60;;
29214;SDS011;16252;49.816;7.964;2023-05-10T08:49:05;0.88;;;0.57;;
29214;SDS011;16252;49.816;7.964;2023-05-10T08:51:36;0.77;;;0.60;;
29214;SDS011;16252;49.816;7.964;2023-05-10T08:54:03;0.85;;;0.60;;
29214;SDS011;16252;49.816;7.964;2023-05-10T08:56:29;0.98;;;0.70;;
29214;SDS011;16252;49.816;7.964;2023-05-10T08:58:55;1.52;;;0.68;;
29214;SDS011;16252;49.816;7.964;2023-05-10T09:01:21;1.85;;;0.40;;
29214;SDS011;16252;49.816;7.964;2023-05-10T09:03:47;0.90;;;0.60;;
29214;SDS011;16252;49.816;7.964;2023-05-10T09:06:13;1.98;;;0.60;;
29214;SDS011;16252;49.816;7.964;2023-05-10T09:08:38;1.10;;;0.70;;
29214;SDS011;16252;49.816;7.964;2023-05-10T09:11:07;0.68;;;0.68;;
29214;SDS011;16252;49.816;7.964;2023-05-10T09:13:35;0.47;;;0.47;;
29214;SDS011;16252;49.816;7.964;2023-05-10T09:16:01;1.45;;;0.60;;
29214;SDS011;16252;49.816;7.964;2023-05-10T09:18:27;1.17;;;0.70;;
29214;SDS011;16252;49.816;7.964;2023-05-10T09:20:52;1.13;;;0.93;;
29214;SDS011;16252;49.816;7.964;2023-05-10T09:23:18;0.80;;;0.80;;
29214;SDS011;16252;49.816;7.964;2023-05-10T09:25:43;0.63;;;0.55;;
29214;SDS011;16252;49.816;7.964;2023-05-10T09:28:08;1.45;;;0.60;;
29214;SDS011;16252;49.816;7.964;2023-05-10T09:30:34;0.40;;;0.40;;
29214;SDS011;16252;49.816;7.964;2023-05-10T09:33:00;0.90;;;0.45;;
29214;SDS011;16252;49.816;7.964;2023-05-10T09:35:27;0.90;;;0.60;;
29214;SDS011;16252;49.816;7.964;2023-05-10T09:37:54;0.65;;;0.65;;
29214;SDS011;16252;49.816;7.964;2023-05-10T09:40:26;0.50;;;0.50;;
29214;SDS011;16252;49.816;7.964;2023-05-10T09:42:56;1.20;;;0.55;;
29214;SDS011;16252;49.816;7.964;2023-05-10T09:45:24;0.63;;;0.57;;
29214;SDS011;16252;49.816;7.964;2023-05-10T09:47:54;1.52;;;0.85;;
29214;SDS011;16252;49.816;7.964;2023-05-10T09:50:20;1.88;;;1.27;;
29214;SDS011;16252;49.816;7.964;2023-05-10T09:52:59;1.50;;;1.05;;
29214;SDS011;16252;49.816;7.964;2023-05-10T09:58:01;1.67;;;1.05;;
29214;SDS011;16252;49.816;7.964;2023-05-10T10:00:27;1.95;;;0.90;;
29214;SDS011;16252;49.816;7.964;2023-05-10T10:02:57;1.00;;;0.75;;
29214;SDS011;16252;49.816;7.964;2023-05-10T10:05:30;0.73;;;0.73;;
29214;SDS011;16252;49.816;7.964;2023-05-10T10:07:56;1.45;;;0.90;;
29214;SDS011;16252;49.816;7.964;2023-05-10T10:10:22;0.90;;;0.90;;
29214;SDS011;16252;49.816;7.964;2023-05-10T10:12:49;0.80;;;0.80;;
29214;SDS011;16252;49.816;7.964;2023-05-10T10:15:14;0.60;;;0.60;;
29214;SDS011;16252;49.816;7.964;2023-05-10T10:17:40;1.20;;;0.80;;
29214;SDS011;16252;49.816;7.964;2023-05-10T10:20:08;0.90;;;0.60;;
29214;SDS011;16252;49.816;7.964;2023-05-10T10:22:34;0.50;;;0.50;;
29214;SDS011;16252;49.816;7.964;2023-05-10T10:24:59;1.27;;;0.75;;
29214;SDS011;16252;49.816;7.964;2023-05-10T10:28:10;0.60;;;0.52;;
29214;SDS011;16252;49.816;7.964;2023-05-10T10:33:18;0.40;;;0.38;;
29214;SDS011;16252;49.816;7.964;2023-05-10T10:35:57;1.20;;;0.70;;
29214;SDS011;16252;49.816;7.964;2023-05-10T10:38:24;0.30;;;0.30;;
29214;SDS011;16252;49.816;7.964;2023-05-10T10:41:03;0.47;;;0.47;;
29214;SDS011;16252;49.816;7.964;2023-05-10T10:43:34;0.73;;;0.40;;
29214;SDS011;16252;49.816;7.964;2023-05-10T10:48:49;0.30;;;0.30;;
29214;SDS011;16252;49.816;7.964;2023-05-10T10:51:32;0.52;;;0.40;;
29214;SDS011;16252;49.816;7.964;2023-05-10T10:54:04;0.32;;;0.32;;
29214;SDS011;16252;49.816;7.964;2023-05-10T10:56:34;0.50;;;0.50;;
29214;SDS011;16252;49.816;7.964;2023-05-10T10:58:59;1.55;;;0.60;;
29214;SDS011;16252;49.816;7.964;2023-05-10T11:01:24;0.93;;;0.70;;
29214;SDS011;16252;49.816;7.964;2023-05-10T11:06:29;1.07;;;0.60;;
29214;SDS011;16252;49.816;7.964;2023-05-10T11:08:59;0.57;;;0.57;;
29214;SDS011;16252;49.816;7.964;2023-05-10T11:11:30;1.20;;;0.70;;
29214;SDS011;16252;49.816;7.964;2023-05-10T11:13:56;0.68;;;0.55;;
29214;SDS011;16252;49.816;7.964;2023-05-10T11:16:28;0.52;;;0.50;;
29214;SDS011;16252;49.816;7.964;2023-05-10T11:19:13;1.30;;;0.45;;
29214;SDS011;16252;49.816;7.964;2023-05-10T11:21:44;0.47;;;0.45;;
29214;SDS011;16252;49.816;7.964;2023-05-10T11:24:21;1.77;;;0.40;;
29214;SDS011;16252;49.816;7.964;2023-05-10T11:26:52;0.50;;;0.50;;
29214;SDS011;16252;49.816;7.964;2023-05-10T11:29:18;0.73;;;0.52;;
29214;SDS011;16252;49.816;7.964;2023-05-10T11:31:44;1.75;;;0.60;;
29214;SDS011;16252;49.816;7.964;2023-05-10T11:34:10;1.77;;;0.65;;
29214;SDS011;16252;49.816;7.964;2023-05-10T11:36:36;1.88;;;0.55;;
29214;SDS011;16252;49.816;7.964;2023-05-10T11:39:01;0.95;;;0.40;;
29214;SDS011;16252;49.816;7.964;2023-05-10T11:41:28;0.50;;;0.50;;
29214;SDS011;16252;49.816;7.964;2023-05-10T11:43:55;0.50;;;0.50;;
29214;SDS011;16252;49.816;7.964;2023-05-10T11:46:23;1.13;;;0.50;;
29214;SDS011;16252;49.816;7.964;2023-05-10T11:48:49;1.10;;;0.38;;
29214;SDS011;16252;49.816;7.964;2023-05-10T11:51:19;1.42;;;0.43;;
29214;SDS011;16252;49.816;7.964;2023-05-10T11:53:49;0.30;;;0.30;;
29214;SDS011;16252;49.816;7.964;2023-05-10T11:56:16;0.40;;;0.40;;
29214;SDS011;16252;49.816;7.964;2023-05-10T11:58:41;1.70;;;0.70;;
29214;SDS011;16252;49.816;7.964;2023-05-10T12:01:07;2.03;;;0.50;;
29214;SDS011;16252;49.816;7.964;2023-05-10T12:03:34;2.85;;;0.60;;
29214;SDS011;16252;49.816;7.964;2023-05-10T12:05:59;0.63;;;0.50;;
29214;SDS011;16252;49.816;7.964;2023-05-10T12:08:26;0.93;;;0.90;;
29214;SDS011;16252;49.816;7.964;2023-05-10T12:10:53;1.67;;;0.55;;
29214;SDS011;16252;49.816;7.964;2023-05-10T12:13:28;0.68;;;0.57;;
29214;SDS011;16252;49.816;7.964;2023-05-10T12:15:53;1.42;;;0.60;;
29214;SDS011;16252;49.816;7.964;2023-05-10T12:18:23;0.97;;;0.50;;
29214;SDS011;16252;49.816;7.964;2023-05-10T12:20:52;0.80;;;0.60;;
29214;SDS011;16252;49.816;7.964;2023-05-10T12:23:18;4.60;;;0.60;;
29214;SDS011;16252;49.816;7.964;2023-05-10T12:25:45;1.45;;;0.50;;
29214;SDS011;16252;49.816;7.964;2023-05-10T12:28:10;1.42;;;0.60;;
29214;SDS011;16252;49.816;7.964;2023-05-10T12:30:35;0.80;;;0.40;;
29214;SDS011;16252;49.816;7.964;2023-05-10T12:33:09;0.47;;;0.40;;
29214;SDS011;16252;49.816;7.964;2023-05-10T12:35:45;1.95;;;0.60;;
29214;SDS011;16252;49.816;7.964;2023-05-10T12:41:06;0.70;;;0.40;;
29214;SDS011;16252;49.816;7.964;2023-05-10T12:43:34;0.50;;;0.38;;
29214;SDS011;16252;49.816;7.964;2023-05-10T12:46:07;0.80;;;0.40;;
29214;SDS011;16252;49.816;7.964;2023-05-10T12:48:33;0.98;;;0.60;;
29214;SDS011;16252;49.816;7.964;2023-05-10T12:50:59;0.95;;;0.50;;
29214;SDS011;16252;49.816;7.964;2023-05-10T12:53:26;2.55;;;0.47;;
29214;SDS011;16252;49.816;7.964;2023-05-10T12:55:51;3.45;;;0.60;;
29214;SDS011;16252;49.816;7.964;2023-05-10T12:58:17;1.67;;;0.60;;
29214;SDS011;16252;49.816;7.964;2023-05-10T13:00:42;1.17;;;0.70;;
29214;SDS011;16252;49.816;7.964;2023-05-10T13:03:08;2.78;;;0.82;;
29214;SDS011;16252;49.816;7.964;2023-05-10T13:05:34;1.30;;;0.60;;
29214;SDS011;16252;49.816;7.964;2023-05-10T13:08:00;1.02;;;0.43;;
29214;SDS011;16252;49.816;7.964;2023-05-10T13:10:26;0.50;;;0.50;;
29214;SDS011;16252;49.816;7.964;2023-05-10T13:12:51;1.38;;;0.85;;
29214;SDS011;16252;49.816;7.964;2023-05-10T13:15:17;2.05;;;0.50;;
29214;SDS011;16252;49.816;7.964;2023-05-10T13:17:42;1.65;;;0.50;;
29214;SDS011;16252;49.816;7.964;2023-05-10T13:20:07;0.80;;;0.52;;
29214;SDS011;16252;49.816;7.964;2023-05-10T13:22:34;0.50;;;0.50;;
29214;SDS011;16252;49.816;7.964;2023-05-10T13:24:59;2.15;;;1.00;;
29214;SDS011;16252;49.816;7.964;2023-05-10T13:27:25;1.98;;;0.60;;
29214;SDS011;16252;49.816;7.964;2023-05-10T13:29:50;2.25;;;1.00;;
29214;SDS011;16252;49.816;7.964;2023-05-10T13:32:15;1.13;;;0.68;;
29214;SDS011;16252;49.816;7.964;2023-05-10T13:34:41;0.77;;;0.50;;
29214;SDS011;16252;49.816;7.964;2023-05-10T13:37:06;1.70;;;0.50;;
29214;SDS011;16252;49.816;7.964;2023-05-10T13:39:31;1.48;;;0.82;;
29214;SDS011;16252;49.816;7.964;2023-05-10T13:41:59;1.23;;;0.77;;
29214;SDS011;16252;49.816;7.964;2023-05-10T13:44:24;0.60;;;0.60;;
29214;SDS011;16252;49.816;7.964;2023-05-10T13:46:50;0.85;;;0.65;;
29214;SDS011;16252;49.816;7.964;2023-05-10T13:49:15;2.17;;;0.90;;
29214;SDS011;16252;49.816;7.964;2023-05-10T13:51:40;1.70;;;1.00;;
29214;SDS011;16252;49.816;7.964;2023-05-10T13:54:05;4.40;;;0.80;;
29214;SDS011;16252;49.816;7.964;2023-05-10T13:56:31;1.13;;;0.63;;
29214;SDS011;16252;49.816;7.964;2023-05-10T13:58:56;1.92;;;0.60;;
29214;SDS011;16252;49.816;7.964;2023-05-10T14:01:23;3.30;;;0.90;;
29214;SDS011;16252;49.816;7.964;2023-05-10T14:03:48;1.50;;;0.60;;
29214;SDS011;16252;49.816;7.964;2023-05-10T14:06:14;0.80;;;0.60;;
29214;SDS011;16252;49.816;7.964;2023-05-10T14:08:39;1.00;;;0.57;;
29214;SDS011;16252;49.816;7.964;2023-05-10T14:11:05;1.45;;;0.50;;
29214;SDS011;16252;49.816;7.964;2023-05-10T14:13:30;1.23;;;0.77;;
29214;SDS011;16252;49.816;7.964;2023-05-10T14:15:55;0.60;;;0.50;;
29214;SDS011;16252;49.816;7.964;2023-05-10T14:18:21;2.20;;;0.65;;
29214;SDS011;16252;49.816;7.964;2023-05-10T14:20:46;0.85;;;0.50;;
29214;SDS011;16252;49.816;7.964;2023-05-10T14:23:12;1.73;;;0.75;;
29214;SDS011;16252;49.816;7.964;2023-05-10T14:25:37;2.15;;;0.60;;
29214;SDS011;16252;49.816;7.964;2023-05-10T14:28:04;2.67;;;0.63;;
29214;SDS011;16252;49.816;7.964;2023-05-10T14:30:30;2.00;;;0.82;;
29214;SDS011;16252;49.816;7.964;2023-05-10T14:32:56;1.40;;;0.50;;
29214;SDS011;16252;49.816;7.964;2023-05-10T14:35:23;1.13;;;0.80;;
29214;SDS011;16252;49.816;7.964;2023-05-10T14:37:48;1.38;;;0.70;;
29214;SDS011;16252;49.816;7.964;2023-05-10T14:40:13;2.70;;;0.68;;
29214;SDS011;16252;49.816;7.964;2023-05-10T14:42:40;1.20;;;0.75;;
29214;SDS011;16252;49.816;7.964;2023-05-10T14:45:05;2.25;;;0.60;;
29214;SDS011;16252;49.816;7.964;2023-05-10T14:47:31;1.13;;;0.80;;
29214;SDS011;16252;49.816;7.964;2023-05-10T14:49:56;0.65;;;0.60;;
29214;SDS011;16252;49.816;7.964;2023-05-10T14:52:21;1.25;;;0.60;;
29214;SDS011;16252;49.816;7.964;2023-05-10T14:54:46;2.08;;;0.80;;
29214;SDS011;16252;49.816;7.964;2023-05-10T14:57:12;4.38;;;0.60;;
29214;SDS011;16252;49.816;7.964;2023-05-10T14:59:37;1.45;;;0.88;;
29214;SDS011;16252;49.816;7.964;2023-05-10T15:02:03;0.65;;;0.45;;
29214;SDS011;16252;49.816;7.964;2023-05-10T15:04:29;0.85;;;0.50;;
29214;SDS011;16252;49.816;7.964;2023-05-10T15:06:54;1.35;;;0.75;;
29214;SDS011;16252;49.816;7.964;2023-05-10T15:09:23;0.93;;;0.55;;
29214;SDS011;16252;49.816;7.964;2023-05-10T15:11:49;0.93;;;0.50;;
29214;SDS011;16252;49.816;7.964;2023-05-10T15:14:14;1.15;;;0.77;;